Time;durP1;ratioP1;P1;durP2;ratioP2;P2;SDS_P1;SDS_P2;PMS_P1;PMS_P2;Temp;Humidity;BMP_temperature;BMP_pressure;BME280_temperature;BME280_humidity;BME280_pressure;Samples;Min_cycle;Max_cycle;Signal;HPM_P1;HPM_P2
2023/05/10 00:01:11;;;;;;;9.80;4.03;;;;;;;9.16;45.72;100833.97;4207828;28;20243;-65
2023/05/10 00:03:37;;;;;;;10.77;4.73;;;;;;;9.11;45.84;100836.19;4208931;28;20436;-63
2023/05/10 00:06:04;;;;;;;9.23;4.40;;;;;;;9.08;46.01;100831.06;4205017;28;20247;-63
2023/05/10 00:08:31;;;;;;;10.57;4.23;;;;;;;9.12;45.47;100823.56;4210801;28;20240;-65
2023/05/10 00:10:57;;;;;;;7.50;4.20;;;;;;;9.01;46.06;100811.78;4215660;28;20305;-65
2023/05/10 00:13:24;;;;;;;12.57;4.60;;;;;;;8.97;46.40;100831.97;4208378;28;20244;-63
2023/05/10 00:15:51;;;;;;;10.10;4.10;;;;;;;8.93;46.28;100825.06;4214014;28;20416;-63
2023/05/10 00:18:17;;;;;;;9.27;4.73;;;;;;;8.89;46.63;100815.53;4209076;28;20315;-63
2023/05/10 00:20:45;;;;;;;12.20;4.70;;;;;;;8.87;46.59;100815.63;4209054;28;20290;-64
2023/05/10 00:23:12;;;;;;;8.13;4.33;;;;;;;8.84;46.45;100813.22;4222101;28;22567;-64
2023/05/10 00:25:38;;;;;;;15.07;4.70;;;;;;;8.80;46.91;100808.19;4214567;28;20482;-64
2023/05/10 00:28:05;;;;;;;10.80;4.70;;;;;;;8.81;46.79;100801.81;4210994;28;20235;-64
2023/05/10 00:30:31;;;;;;;13.70;4.70;;;;;;;8.76;46.73;100801.34;4211613;28;25357;-65
2023/05/10 00:32:58;;;;;;;11.33;4.60;;;;;;;8.74;46.78;100796.03;4211220;28;20418;-65
2023/05/10 00:35:24;;;;;;;11.80;5.10;;;;;;;8.74;46.20;100798.75;4212410;28;23072;-64
2023/05/10 00:37:51;;;;;;;9.13;4.40;;;;;;;8.75;46.72;100802.31;4216198;28;20569;-66
2023/05/10 00:40:17;;;;;;;12.57;4.77;;;;;;;8.70;46.74;100808.09;4221473;28;21661;-67
2023/05/10 00:42:44;;;;;;;11.53;4.70;;;;;;;8.63;46.99;100805.03;4216762;28;21160;-64
2023/05/10 00:45:11;;;;;;;10.00;4.70;;;;;;;8.60;46.66;100793.63;4219726;28;21665;-65
2023/05/10 00:47:39;;;;;;;10.33;4.50;;;;;;;8.62;46.76;100799.75;4212082;28;20401;-64
2023/05/10 00:50:06;;;;;;;16.53;4.70;;;;;;;8.59;47.14;100798.19;4217295;28;20244;-65
2023/05/10 00:52:33;;;;;;;11.93;4.73;;;;;;;8.58;47.14;100799.16;4209600;28;22812;-64
2023/05/10 00:54:59;;;;;;;12.47;4.93;;;;;;;8.48;47.29;100799.06;4210647;28;20243;-63
2023/05/10 00:57:26;;;;;;;11.47;4.60;;;;;;;8.47;47.38;100800.03;4202532;28;20394;-64
2023/05/10 00:59:53;;;;;;;9.20;4.70;;;;;;;8.46;46.79;100798.28;4201761;28;20232;-63
2023/05/10 01:02:19;;;;;;;13.20;4.43;;;;;;;8.45;47.45;100801.97;4217301;28;20296;-66
2023/05/10 01:04:47;;;;;;;9.47;4.23;;;;;;;8.41;47.39;100793.25;4213088;28;20548;-64
2023/05/10 01:07:13;;;;;;;12.27;4.40;;;;;;;8.38;47.23;100787.25;4211517;28;22829;-66
2023/05/10 01:09:40;;;;;;;11.90;4.67;;;;;;;8.40;46.84;100788.84;4217288;28;20450;-62
2023/05/10 01:12:07;;;;;;;11.33;4.40;;;;;;;8.46;46.56;100783.94;4217739;28;20236;-65
2023/05/10 01:14:35;;;;;;;8.87;4.37;;;;;;;8.45;46.79;100793.88;4203603;28;21769;-63
2023/05/10 01:17:02;;;;;;;10.50;4.47;;;;;;;8.39;46.81;100787.13;4219086;28;20303;-64
2023/05/10 01:19:30;;;;;;;11.33;4.57;;;;;;;8.38;46.72;100785.41;4206500;28;20721;-64
2023/05/10 01:22:21;;;;;;;8.03;4.10;;;;;;;8.33;47.03;100782.22;4215347;28;20228;-65
2023/05/10 01:25:14;;;;;;;13.63;4.10;;;;;;;8.30;46.80;100779.81;4225182;28;22986;-64
2023/05/10 01:27:46;;;;;;;8.00;3.80;;;;;;;8.28;46.82;100779.06;4221509;28;25674;-62
2023/05/10 01:30:37;;;;;;;7.53;4.03;;;;;;;8.19;47.02;100777.97;4210989;28;24996;-62
2023/05/10 01:33:09;;;;;;;7.57;3.93;;;;;;;8.24;47.24;100781.16;4217164;28;20241;-65
2023/05/10 01:35:45;;;;;;;8.20;3.93;;;;;;;8.12;47.37;100792.91;4202397;28;20247;-65
2023/05/10 01:38:37;;;;;;;10.87;4.30;;;;;;;8.20;47.23;100784.22;4206428;28;20232;-63
2023/05/10 01:41:13;;;;;;;9.47;4.23;;;;;;;8.16;47.26;100780.03;4223382;28;20244;-61
2023/05/10 01:43:54;;;;;;;10.30;4.30;;;;;;;8.08;47.46;100773.41;4195199;28;20315;-64
2023/05/10 01:46:28;;;;;;;7.20;3.90;;;;;;;8.05;47.61;100778.19;4213601;28;20357;-64
2023/05/10 01:48:58;;;;;;;9.33;4.20;;;;;;;8.04;48.00;100768.41;4230953;28;20236;-63
2023/05/10 01:51:27;;;;;;;9.30;3.57;;;;;;;7.99;48.08;100768.78;4199753;28;20264;-66
2023/05/10 01:54:00;;;;;;;7.77;4.30;;;;;;;7.97;47.75;100772.59;4220138;28;20233;-65
2023/05/10 01:56:28;;;;;;;8.20;3.87;;;;;;;7.93;47.88;100775.50;4198492;28;21109;-64
2023/05/10 01:58:55;;;;;;;11.20;4.17;;;;;;;7.88;48.57;100769.63;4214502;28;20243;-62
2023/05/10 02:01:22;;;;;;;10.43;4.37;;;;;;;7.84;48.50;100765.47;4204597;28;21637;-64
2023/05/10 02:03:49;;;;;;;11.43;4.60;;;;;;;7.81;48.50;100764.84;4212588;28;20240;-65
2023/05/10 02:06:18;;;;;;;8.83;3.53;;;;;;;7.82;48.08;100761.16;4214429;28;20244;-64
2023/05/10 02:08:46;;;;;;;9.70;4.20;;;;;;;7.75;48.79;100758.09;4200168;28;20246;-65
2023/05/10 02:11:13;;;;;;;15.63;4.10;;;;;;;7.73;48.43;100760.91;4213225;28;20319;-61
2023/05/10 02:13:41;;;;;;;13.70;4.97;;;;;;;7.68;48.59;100767.63;4204348;28;20236;-65
2023/05/10 02:16:07;;;;;;;11.73;3.83;;;;;;;7.68;48.89;100762.25;4196792;28;20228;-64
2023/05/10 02:18:35;;;;;;;7.90;4.00;;;;;;;7.66;48.89;100764.22;4212708;28;21160;-65
2023/05/10 02:21:02;;;;;;;9.93;3.83;;;;;;;7.64;48.74;100755.41;4196512;28;20233;-63
2023/05/10 02:23:29;;;;;;;9.97;3.93;;;;;;;7.64;49.08;100767.03;4210804;28;20238;-62
2023/05/10 02:25:57;;;;;;;9.63;3.90;;;;;;;7.54;49.63;100753.41;4218289;28;20235;-62
2023/05/10 02:28:24;;;;;;;13.67;4.00;;;;;;;7.50;49.64;100760.03;4214662;28;20232;-63
2023/05/10 02:30:52;;;;;;;8.27;4.20;;;;;;;7.51;49.57;100755.50;4209463;28;20243;-62
2023/05/10 02:33:20;;;;;;;9.23;3.90;;;;;;;7.49;49.19;100762.81;4212556;28;21108;-62
2023/05/10 02:35:47;;;;;;;8.87;4.07;;;;;;;7.47;49.88;100749.50;4215922;28;20235;-61
2023/05/10 02:38:14;;;;;;;10.50;4.03;;;;;;;7.48;49.48;100755.75;4211852;28;20309;-64
2023/05/10 02:40:42;;;;;;;7.40;3.67;;;;;;;7.45;49.43;100751.44;4207587;28;20505;-63
2023/05/10 02:43:12;;;;;;;9.47;4.03;;;;;;;7.41;49.42;100758.06;4212893;28;20242;-62
2023/05/10 02:45:39;;;;;;;11.63;3.97;;;;;;;7.38;49.89;100758.28;4209929;28;20232;-64
2023/05/10 02:48:06;;;;;;;10.30;4.27;;;;;;;7.40;49.52;100759.03;4205538;28;20240;-63
2023/05/10 02:50:33;;;;;;;8.37;3.90;;;;;;;7.39;49.64;100750.09;4216305;28;20262;-65
2023/05/10 02:53:02;;;;;;;12.20;3.77;;;;;;;7.38;49.72;100756.47;4217915;28;20299;-65
2023/05/10 02:55:33;;;;;;;11.83;4.03;;;;;;;7.35;50.06;100758.53;4219916;28;23050;-65
2023/05/10 02:58:01;;;;;;;10.33;3.90;;;;;;;7.34;50.27;100767.59;4212966;28;20631;-63
2023/05/10 03:00:28;;;;;;;12.20;4.07;;;;;;;7.30;50.03;100764.28;4209819;28;20243;-65
2023/05/10 03:02:54;;;;;;;9.53;3.97;;;;;;;7.29;50.14;100758.00;4212958;28;22305;-64
2023/05/10 03:05:21;;;;;;;12.97;3.90;;;;;;;7.35;50.39;100759.38;4200314;28;20224;-62
2023/05/10 03:07:48;;;;;;;10.93;4.23;;;;;;;7.35;50.13;100763.91;4217846;28;20947;-64
2023/05/10 03:10:15;;;;;;;9.73;4.00;;;;;;;7.35;50.23;100758.53;4217829;28;21133;-65
2023/05/10 03:13:01;;;;;;;9.83;3.57;;;;;;;7.25;50.91;100759.22;4210346;28;20547;-63
2023/05/10 03:15:46;;;;;;;8.47;4.20;;;;;;;7.25;50.49;100767.31;4238277;28;20576;-63
2023/05/10 03:18:13;;;;;;;12.43;4.17;;;;;;;7.22;50.62;100767.53;4222668;28;20362;-62
2023/05/10 03:20:48;;;;;;;9.33;4.53;;;;;;;7.21;50.68;100763.16;4215948;28;21311;-62
2023/05/10 03:23:17;;;;;;;11.10;4.13;;;;;;;7.22;50.78;100767.53;4222480;28;20239;-61
2023/05/10 03:25:47;;;;;;;11.07;4.40;;;;;;;7.27;51.11;100756.41;4222636;28;20600;-64
2023/05/10 03:28:14;;;;;;;8.70;3.83;;;;;;;7.32;50.60;100759.63;4215599;28;20238;-62
2023/05/10 03:30:42;;;;;;;11.23;3.90;;;;;;;7.27;50.89;100754.59;4211214;28;26376;-66
2023/05/10 03:33:09;;;;;;;9.93;4.10;;;;;;;7.29;50.95;100760.69;4230013;28;20303;-65
2023/05/10 03:35:35;;;;;;;8.60;3.90;;;;;;;7.31;50.80;100757.91;4218887;28;21650;-65
2023/05/10 03:38:02;;;;;;;8.23;3.60;;;;;;;7.32;50.79;100759.63;4218846;28;20236;-65
2023/05/10 03:40:31;;;;;;;12.20;3.67;;;;;;;7.38;50.04;100759.16;4206734;28;23450;-63
2023/05/10 03:42:58;;;;;;;19.03;3.73;;;;;;;7.45;50.50;100756.81;4215463;28;20239;-64
2023/05/10 03:45:25;;;;;;;8.87;4.20;;;;;;;7.49;50.03;100763.72;4221614;28;20231;-62
2023/05/10 03:47:51;;;;;;;11.53;4.30;;;;;;;7.50;50.29;100753.78;4215579;28;22217;-65
2023/05/10 03:50:18;;;;;;;13.47;4.10;;;;;;;7.51;50.14;100756.38;4198944;28;22657;-62
2023/05/10 03:52:46;;;;;;;9.30;4.13;;;;;;;7.55;50.24;100757.84;4203814;28;20422;-62
2023/05/10 03:55:12;;;;;;;10.73;4.33;;;;;;;7.62;49.89;100755.53;4225456;28;20375;-64
2023/05/10 03:57:39;;;;;;;14.83;4.23;;;;;;;7.65;50.10;100754.44;4230419;28;20265;-66
2023/05/10 04:00:06;;;;;;;9.53;4.20;;;;;;;7.67;50.06;100757.84;4212541;28;20340;-65
2023/05/10 04:02:33;;;;;;;12.43;3.70;;;;;;;7.67;49.79;100756.00;4231260;28;20323;-63
2023/05/10 04:04:59;;;;;;;10.00;4.00;;;;;;;7.73;49.75;100762.75;4224375;28;22631;-64
2023/05/10 04:07:26;;;;;;;8.20;3.57;;;;;;;7.75;49.96;100760.78;4209808;28;20603;-63
2023/05/10 04:09:53;;;;;;;9.10;4.00;;;;;;;7.76;50.05;100763.38;4202521;28;25364;-62
2023/05/10 04:12:19;;;;;;;17.70;4.40;;;;;;;7.81;50.36;100760.31;4214960;28;20394;-63
2023/05/10 04:14:46;;;;;;;12.97;3.70;;;;;;;7.85;49.75;100763.63;4215508;28;20237;-63
2023/05/10 04:17:12;;;;;;;7.83;3.57;;;;;;;7.88;49.47;100758.84;4218322;28;20231;-64
2023/05/10 04:19:39;;;;;;;10.50;3.87;;;;;;;7.92;49.49;100759.47;4213284;28;20578;-63
2023/05/10 04:22:06;;;;;;;9.93;4.00;;;;;;;8.02;49.43;100754.19;4220351;28;20228;-63
2023/05/10 04:24:32;;;;;;;9.90;4.00;;;;;;;8.09;49.33;100763.50;4223578;28;23086;-64
2023/05/10 04:26:59;;;;;;;8.37;3.87;;;;;;;8.19;48.67;100766.31;4225096;28;20241;-66
2023/05/10 04:29:26;;;;;;;9.70;3.60;;;;;;;8.18;49.08;100761.91;4201726;28;20235;-64
2023/05/10 04:31:53;;;;;;;12.27;3.83;;;;;;;8.25;48.72;100755.03;4201568;28;20403;-62
2023/05/10 04:34:20;;;;;;;10.53;4.07;;;;;;;8.36;48.55;100768.50;4222693;28;21741;-62
2023/05/10 04:36:47;;;;;;;13.50;4.27;;;;;;;8.38;48.07;100780.00;4218260;28;22251;-64
2023/05/10 04:39:13;;;;;;;8.83;3.77;;;;;;;8.44;48.24;100767.88;4210728;28;21009;-63
2023/05/10 04:41:40;;;;;;;17.67;4.23;;;;;;;8.52;48.41;100768.13;4206598;28;20236;-64
2023/05/10 04:44:06;;;;;;;15.23;4.07;;;;;;;8.62;48.48;100772.78;4210954;28;20701;-64
2023/05/10 04:46:33;;;;;;;10.67;4.20;;;;;;;8.72;47.91;100781.84;4206818;28;21517;-65
2023/05/10 04:48:59;;;;;;;12.40;4.53;;;;;;;8.85;48.04;100771.72;4211134;28;20235;-64
2023/05/10 04:51:26;;;;;;;11.30;3.50;;;;;;;8.83;47.75;100772.84;4210464;28;20414;-63
2023/05/10 04:53:52;;;;;;;12.67;3.97;;;;;;;8.84;47.91;100770.00;4217366;28;20236;-66
2023/05/10 04:56:32;;;;;;;10.57;3.47;;;;;;;8.98;47.34;100776.09;4214819;28;20235;-63
2023/05/10 04:58:58;;;;;;;11.73;3.90;;;;;;;9.06;47.67;100772.75;4209057;28;21839;-65
2023/05/10 05:01:25;;;;;;;10.50;4.27;;;;;;;9.01;47.37;100762.34;4206764;28;20233;-66
2023/05/10 05:03:52;;;;;;;10.10;4.20;;;;;;;9.07;47.41;100767.22;4205097;28;21695;-64
2023/05/10 05:06:20;;;;;;;9.63;3.43;;;;;;;9.24;46.89;100764.94;4187852;28;25188;-64
2023/05/10 05:08:49;;;;;;;13.20;4.20;;;;;;;9.28;46.76;100769.09;4213039;28;20404;-63
2023/05/10 05:11:16;;;;;;;17.83;4.10;;;;;;;9.40;46.97;100778.84;4203882;28;20314;-66
2023/05/10 05:13:43;;;;;;;7.77;3.53;;;;;;;9.62;46.76;100771.59;4203045;28;21343;-65
2023/05/10 05:16:10;;;;;;;11.57;3.77;;;;;;;9.51;46.58;100772.53;4196566;28;20236;-65
2023/05/10 05:18:37;;;;;;;10.30;3.60;;;;;;;9.53;46.25;100770.53;4208430;28;20251;-67
2023/05/10 05:21:13;;;;;;;15.17;4.07;;;;;;;9.60;46.49;100777.13;4211288;28;20248;-63
2023/05/10 05:23:40;;;;;;;11.00;3.67;;;;;;;9.76;45.80;100773.09;4209157;28;20281;-69
2023/05/10 05:26:06;;;;;;;10.47;3.67;;;;;;;9.87;46.23;100778.44;4212749;28;20266;-68
2023/05/10 05:28:36;;;;;;;10.40;3.50;;;;;;;10.00;45.91;100780.91;4210985;28;22306;-65
2023/05/10 05:31:12;;;;;;;11.00;3.53;;;;;;;10.12;45.49;100769.00;4205989;28;20951;-63
2023/05/10 05:33:38;;;;;;;11.83;3.53;;;;;;;10.13;45.24;100770.72;4222983;28;23308;-65
2023/05/10 05:36:05;;;;;;;11.80;4.40;;;;;;;10.30;45.30;100777.31;4211532;28;20307;-65
2023/05/10 05:38:32;;;;;;;21.33;4.10;;;;;;;10.35;45.79;100774.19;4205650;28;20332;-64
2023/05/10 05:40:58;;;;;;;11.80;3.57;;;;;;;10.56;44.43;100762.47;4216438;28;20596;-64
2023/05/10 05:43:25;;;;;;;11.90;4.10;;;;;;;10.89;43.74;100768.50;4233937;28;20240;-63
2023/05/10 05:45:53;;;;;;;12.33;3.83;;;;;;;11.08;43.53;100773.06;4222248;28;22868;-64
2023/05/10 05:48:20;;;;;;;8.73;3.20;;;;;;;11.63;42.39;100775.16;4211357;28;20232;-65
2023/05/10 05:50:47;;;;;;;18.20;3.80;;;;;;;12.63;39.95;100764.63;4223914;28;20259;-65
2023/05/10 05:53:13;;;;;;;14.10;3.77;;;;;;;13.84;37.69;100762.41;4214915;28;23542;-63
2023/05/10 05:55:40;;;;;;;9.00;3.33;;;;;;;14.39;36.09;100764.75;4203751;28;20422;-66
2023/05/10 05:58:06;;;;;;;7.83;3.53;;;;;;;14.74;35.58;100771.00;4219322;28;22407;-63
2023/05/10 06:00:33;;;;;;;14.33;3.80;;;;;;;15.45;34.55;100773.28;4213353;28;20264;-66
2023/05/10 06:03:00;;;;;;;8.23;4.00;;;;;;;15.29;34.55;100765.13;4210559;28;20738;-63
2023/05/10 06:05:26;;;;;;;12.77;3.90;;;;;;;16.52;33.16;100771.31;4211752;28;20418;-64
2023/05/10 06:07:53;;;;;;;18.90;3.50;;;;;;;17.23;31.88;100766.63;4219568;28;20238;-63
2023/05/10 06:10:19;;;;;;;9.03;3.30;;;;;;;16.85;32.16;100768.41;4217348;28;21807;-65
2023/05/10 06:12:46;;;;;;;9.60;3.20;;;;;;;17.97;31.16;100777.97;4215570;28;25969;-65
2023/05/10 06:15:12;;;;;;;10.57;2.77;;;;;;;17.95;30.67;100771.78;4219372;28;20241;-64
2023/05/10 06:17:40;;;;;;;12.83;4.17;;;;;;;18.53;30.08;100778.31;4205529;28;21617;-64
2023/05/10 06:20:07;;;;;;;9.43;3.07;;;;;;;18.72;29.32;100770.53;4219564;28;20240;-63
2023/05/10 06:22:33;;;;;;;13.57;3.20;;;;;;;19.18;28.87;100777.56;4216266;28;20436;-65
2023/05/10 06:25:00;;;;;;;10.97;3.50;;;;;;;18.94;29.14;100779.66;4214910;28;20654;-65
2023/05/10 06:27:27;;;;;;;8.97;3.47;;;;;;;18.04;30.53;100770.69;4214871;28;20663;-63
2023/05/10 06:29:54;;;;;;;8.50;3.20;;;;;;;18.62;29.57;100768.06;4224077;28;21147;-66
2023/05/10 06:32:35;;;;;;;18.37;3.83;;;;;;;20.21;28.02;100770.78;4207361;28;21561;-66
2023/05/10 06:35:01;;;;;;;11.17;3.10;;;;;;;19.84;27.87;100772.84;4213546;28;20814;-63
2023/05/10 06:37:28;;;;;;;7.20;3.07;;;;;;;20.37;27.24;100764.94;4220427;28;20305;-64
2023/05/10 06:39:55;;;;;;;7.87;2.90;;;;;;;19.07;28.92;100770.72;4220981;28;21255;-64
2023/05/10 06:42:21;;;;;;;10.63;2.90;;;;;;;19.48;28.74;100766.44;4216188;28;23343;-65
2023/05/10 06:44:48;;;;;;;13.70;3.23;;;;;;;19.89;27.80;100767.63;4206657;28;20247;-64
2023/05/10 06:47:14;;;;;;;17.93;3.90;;;;;;;20.24;27.30;100767.63;4213775;28;20236;-63
2023/05/10 06:49:41;;;;;;;9.33;3.40;;;;;;;21.09;26.60;100759.06;4219498;28;21344;-66
2023/05/10 06:52:07;;;;;;;7.10;2.90;;;;;;;20.75;26.37;100771.88;4210120;28;20238;-68
2023/05/10 06:54:34;;;;;;;6.33;3.00;;;;;;;22.16;24.72;100759.03;4212159;28;20240;-63
2023/05/10 06:57:00;;;;;;;5.43;3.33;;;;;;;21.64;25.61;100767.16;4213242;28;20256;-64
2023/05/10 06:59:29;;;;;;;9.80;3.00;;;;;;;22.48;24.18;100770.16;4214991;28;20503;-66
2023/05/10 07:01:55;;;;;;;8.73;2.77;;;;;;;20.69;25.85;100762.53;4209522;28;20228;-62
2023/05/10 07:04:22;;;;;;;4.43;2.43;;;;;;;21.01;25.10;100757.34;4213179;28;20248;-65
2023/05/10 07:06:49;;;;;;;12.80;2.63;;;;;;;21.24;25.53;100766.28;4219772;28;20237;-66
2023/05/10 07:09:16;;;;;;;9.13;2.97;;;;;;;21.16;25.85;100767.31;4214851;28;21147;-64
2023/05/10 07:11:42;;;;;;;8.37;2.67;;;;;;;22.04;24.16;100760.75;4221225;28;20224;-64
2023/05/10 07:14:09;;;;;;;5.47;2.40;;;;;;;20.39;26.05;100764.72;4222456;28;20232;-64
2023/05/10 07:16:36;;;;;;;8.93;3.00;;;;;;;20.96;25.80;100761.81;4224032;28;20370;-65
2023/05/10 07:19:02;;;;;;;6.10;2.30;;;;;;;19.64;27.46;100754.31;4219099;28;22077;-63
2023/05/10 07:21:29;;;;;;;8.23;2.60;;;;;;;20.66;26.20;100751.06;4219244;28;20227;-63
2023/05/10 07:23:55;;;;;;;10.03;2.53;;;;;;;20.78;24.55;100756.84;4218798;28;25513;-66
2023/05/10 07:26:22;;;;;;;9.13;2.70;;;;;;;21.32;24.55;100744.06;4224912;28;20323;-65
2023/05/10 07:28:48;;;;;;;5.47;2.60;;;;;;;22.82;23.58;100761.72;4243454;28;22446;-63
2023/05/10 07:31:15;;;;;;;9.70;2.67;;;;;;;22.21;24.17;100758.34;4199415;28;20241;-65
2023/05/10 07:33:42;;;;;;;15.33;2.40;;;;;;;24.15;22.58;100747.06;4213968;28;20840;-66
2023/05/10 07:36:08;;;;;;;14.47;2.60;;;;;;;19.51;26.02;100755.06;4219088;28;21643;-65
2023/05/10 07:38:35;;;;;;;5.70;2.60;;;;;;;18.83;27.19;100755.44;4206408;28;20233;-66
2023/05/10 07:41:04;;;;;;;10.43;2.27;;;;;;;19.39;26.74;100757.50;4205086;28;20235;-63
2023/05/10 07:43:31;;;;;;;9.87;2.30;;;;;;;18.98;25.61;100760.91;4226150;28;20646;-63
2023/05/10 07:45:59;;;;;;;7.00;1.80;;;;;;;18.89;26.02;100765.63;4234509;28;22937;-64
2023/05/10 07:48:26;;;;;;;9.80;2.27;;;;;;;19.50;25.35;100761.59;4213553;28;20342;-62
2023/05/10 07:50:52;;;;;;;7.20;2.33;;;;;;;18.81;24.30;100758.38;4222542;28;20240;-66
2023/05/10 07:53:19;;;;;;;4.73;2.00;;;;;;;18.96;25.08;100747.38;4220573;28;20580;-63
2023/05/10 07:55:50;;;;;;;11.20;2.37;;;;;;;17.90;25.70;100759.50;4233146;28;20244;-64
2023/05/10 07:58:17;;;;;;;12.00;2.20;;;;;;;17.49;25.35;100754.44;4217933;28;20337;-65
2023/05/10 08:00:43;;;;;;;10.93;2.20;;;;;;;18.05;25.28;100754.06;4221938;28;20232;-65
2023/05/10 08:03:10;;;;;;;6.13;2.30;;;;;;;18.47;24.87;100759.88;4220253;28;20239;-63
2023/05/10 08:05:37;;;;;;;6.57;2.05;;;;;;;18.29;25.59;100757.53;4212784;28;20413;-65
2023/05/10 08:08:03;;;;;;;6.27;2.00;;;;;;;17.93;25.29;100751.94;4214282;28;21699;-66
2023/05/10 08:10:30;;;;;;;10.63;2.10;;;;;;;17.71;26.78;100727.19;4214839;28;20373;-66
2023/05/10 08:12:58;;;;;;;8.53;1.80;;;;;;;17.66;27.07;100748.81;4202471;28;25851;-65
2023/05/10 08:15:25;;;;;;;5.10;2.00;;;;;;;17.62;27.04;100747.47;4217738;28;20269;-64
2023/05/10 08:17:52;;;;;;;6.77;1.90;;;;;;;17.43;26.75;100745.06;4190884;28;1280286;-63
2023/05/10 08:20:18;;;;;;;6.53;2.00;;;;;;;17.25;26.59;100736.38;4209825;28;20246;-64
2023/05/10 08:22:45;;;;;;;5.77;2.10;;;;;;;17.77;26.36;100736.56;4208095;28;21769;-68
2023/05/10 08:25:12;;;;;;;7.33;2.00;;;;;;;18.03;25.74;100736.94;4207467;28;20309;-61
2023/05/10 08:27:39;;;;;;;19.80;2.73;;;;;;;18.83;26.32;100741.75;4210370;28;20330;-63
2023/05/10 08:30:06;;;;;;;8.23;2.17;;;;;;;19.02;25.21;100740.28;4214301;28;21975;-62
2023/05/10 08:32:34;;;;;;;11.60;1.90;;;;;;;18.13;26.52;100733.91;4219968;28;20587;-65
2023/05/10 08:35:01;;;;;;;6.13;2.10;;;;;;;17.85;25.97;100740.03;4220173;28;20244;-64
2023/05/10 08:37:29;;;;;;;7.50;2.00;;;;;;;17.44;26.05;100740.47;4221242;28;20240;-65
2023/05/10 08:39:56;;;;;;;8.53;2.10;;;;;;;17.78;26.39;100746.47;4204791;28;20514;-64
2023/05/10 08:42:25;;;;;;;12.67;1.97;;;;;;;17.32;26.88;100742.81;4222463;28;22084;-68
2023/05/10 08:44:53;;;;;;;7.88;2.28;;;;;;;17.98;25.55;100744.03;4221976;28;20428;-65
2023/05/10 08:47:20;;;;;;;7.27;1.80;;;;;;;17.37;25.84;100750.47;4213276;28;20668;-72
2023/05/10 08:49:50;;;;;;;11.60;2.47;;;;;;;18.14;26.19;100748.50;4211151;28;21110;-66
2023/05/10 08:52:18;;;;;;;7.73;1.70;;;;;;;17.49;26.18;100748.97;4206111;28;22567;-64
2023/05/10 08:54:44;;;;;;;5.27;1.90;;;;;;;17.49;26.06;100740.75;4226562;28;20235;-62
2023/05/10 08:57:11;;;;;;;13.70;2.10;;;;;;;17.08;26.64;100741.97;4220182;28;20242;-64
2023/05/10 08:59:39;;;;;;;9.57;2.33;;;;;;;16.98;26.87;100745.97;4212677;28;20418;-63
2023/05/10 09:02:06;;;;;;;7.13;1.90;;;;;;;17.27;25.99;100739.75;4214306;28;20339;-64
2023/05/10 09:04:32;;;;;;;6.27;1.97;;;;;;;17.36;27.09;100737.81;4197293;28;20292;-68
2023/05/10 09:06:59;;;;;;;2.87;1.80;;;;;;;16.94;27.81;100749.06;4231972;28;23023;-63
2023/05/10 09:09:27;;;;;;;7.90;2.00;;;;;;;16.71;27.84;100727.16;4200097;28;20284;-61
2023/05/10 09:11:54;;;;;;;9.23;1.77;;;;;;;17.01;27.26;100721.84;4214891;28;20227;-63
2023/05/10 09:14:20;;;;;;;6.93;2.20;;;;;;;16.93;26.74;100717.28;4227422;28;20595;-63
2023/05/10 09:16:47;;;;;;;10.80;2.20;;;;;;;16.85;27.29;100725.50;4218063;28;20243;-65
2023/05/10 09:19:14;;;;;;;5.57;1.80;;;;;;;16.56;27.44;100731.69;4225860;28;20236;-66
2023/05/10 09:21:41;;;;;;;4.43;1.97;;;;;;;16.70;27.15;100717.25;4216424;28;20241;-66
2023/05/10 09:24:08;;;;;;;8.40;2.17;;;;;;;16.75;26.93;100720.28;4229951;28;23392;-68
2023/05/10 09:26:36;;;;;;;4.10;1.80;;;;;;;16.62;27.23;100712.66;4201299;28;22246;-69
2023/05/10 09:29:02;;;;;;;9.93;2.07;;;;;;;16.74;27.36;100706.81;4208599;28;20578;-66
2023/05/10 09:31:54;;;;;;;8.80;2.00;;;;;;;16.60;27.45;100731.16;4229102;28;20239;-59
2023/05/10 09:34:32;;;;;;;9.70;1.97;;;;;;;16.57;27.23;100720.56;4215350;28;21830;-63
2023/05/10 09:37:01;;;;;;;9.10;2.00;;;;;;;16.47;27.79;100726.25;4200453;28;22575;-61
2023/05/10 09:39:32;;;;;;;13.00;2.20;;;;;;;16.84;27.27;100718.38;4218353;28;20231;-62
2023/05/10 09:42:06;;;;;;;5.70;2.10;;;;;;;16.73;27.62;100716.03;4216689;28;20575;-64
2023/05/10 09:44:33;;;;;;;3.97;2.00;;;;;;;16.91;27.82;100716.59;4203672;28;20457;-62
2023/05/10 09:47:01;;;;;;;4.57;1.80;;;;;;;17.10;28.01;100714.41;4212582;28;20294;-63
2023/05/10 09:49:27;;;;;;;9.33;1.70;;;;;;;17.34;27.30;100713.34;4226600;28;20250;-64
2023/05/10 09:52:01;;;;;;;7.70;2.40;;;;;;;17.15;28.02;100703.75;4220621;28;20243;-64
2023/05/10 09:54:27;;;;;;;8.47;2.03;;;;;;;16.88;28.74;100708.75;4213407;28;21109;-61
2023/05/10 09:56:54;;;;;;;7.97;2.20;;;;;;;16.72;28.79;100696.06;4213445;28;20246;-62
2023/05/10 09:59:21;;;;;;;9.30;2.40;;;;;;;16.72;28.45;100707.00;4216954;28;20389;-62
2023/05/10 10:01:53;;;;;;;7.57;2.10;;;;;;;16.94;28.18;100705.31;4221370;28;20361;-60
2023/05/10 10:04:21;;;;;;;6.35;2.20;;;;;;;17.03;28.37;100702.50;4204043;28;22524;-61
2023/05/10 10:06:58;;;;;;;9.17;2.10;;;;;;;16.63;28.94;100710.81;4222174;28;20233;-62
2023/05/10 10:09:25;;;;;;;10.80;2.43;;;;;;;16.31;28.54;100704.50;4221293;28;21188;-61
2023/05/10 10:11:52;;;;;;;4.83;1.90;;;;;;;16.45;28.55;100700.16;4220284;28;23733;-64
2023/05/10 10:14:18;;;;;;;6.20;2.10;;;;;;;16.50;29.47;100699.63;4208893;28;20327;-63
2023/05/10 10:16:45;;;;;;;9.43;2.03;;;;;;;16.56;28.91;100690.69;4210637;28;20280;-63
2023/05/10 10:19:33;;;;;;;7.13;1.70;;;;;;;16.49;28.91;100696.03;4220662;28;20341;-63
2023/05/10 10:22:00;;;;;;;7.60;2.30;;;;;;;16.27;28.58;100676.69;4219780;28;20571;-62
2023/05/10 10:24:26;;;;;;;4.77;2.00;;;;;;;16.39;28.27;100681.75;4211151;28;21257;-64
2023/05/10 10:26:55;;;;;;;9.50;2.40;;;;;;;16.50;28.08;100680.50;4215239;28;22067;-64
2023/05/10 10:29:41;;;;;;;8.33;2.10;;;;;;;16.51;28.00;100674.84;4198520;28;20647;-67
2023/05/10 10:32:20;;;;;;;9.77;2.40;;;;;;;16.62;28.21;100684.50;4218446;28;20287;-67
2023/05/10 10:34:47;;;;;;;11.67;2.00;;;;;;;16.61;28.24;100671.88;4215412;28;20232;-63
2023/05/10 10:37:14;;;;;;;5.23;2.20;;;;;;;16.71;28.29;100674.34;4209161;28;20315;-67
2023/05/10 10:39:40;;;;;;;7.47;2.20;;;;;;;16.77;28.08;100659.94;4221303;28;21929;-63
2023/05/10 10:42:07;;;;;;;7.97;2.00;;;;;;;16.55;28.61;100658.94;4211517;28;20312;-63
2023/05/10 10:44:40;;;;;;;7.13;1.87;;;;;;;16.71;28.64;100680.69;4225750;28;20324;-69
2023/05/10 10:47:08;;;;;;;5.03;1.90;;;;;;;16.68;28.86;100666.53;4216138;28;20425;-66
2023/05/10 10:49:41;;;;;;;9.57;2.50;;;;;;;17.06;29.39;100661.13;4217154;28;21021;-56
2023/05/10 10:52:34;;;;;;;6.70;2.37;;;;;;;16.90;28.71;100664.81;4212108;28;20240;-64
2023/05/10 10:55:03;;;;;;;6.63;2.10;;;;;;;16.79;28.23;100666.09;4201159;28;20247;-66
2023/05/10 10:57:48;;;;;;;14.37;2.77;;;;;;;16.86;29.68;100672.53;4229482;28;21242;-65
2023/05/10 11:00:28;;;;;;;7.40;2.00;;;;;;;16.77;27.38;100662.69;4211370;28;20229;-64
2023/05/10 11:03:18;;;;;;;4.53;2.10;;;;;;;16.79;28.57;100661.50;4211329;28;21061;-66
2023/05/10 11:05:48;;;;;;;5.57;2.10;;;;;;;16.79;27.92;100660.63;4219198;28;20309;-64
2023/05/10 11:08:21;;;;;;;4.63;2.17;;;;;;;16.88;28.29;100647.75;4240071;28;20236;-69
2023/05/10 11:10:53;;;;;;;8.97;2.00;;;;;;;17.15;28.76;100653.69;4212422;28;21137;-65
2023/05/10 11:13:40;;;;;;;7.57;2.07;;;;;;;16.68;28.01;100650.97;4225351;28;20258;-63
2023/05/10 11:16:20;;;;;;;5.87;1.90;;;;;;;16.85;28.40;100653.56;4215537;28;21826;-61
2023/05/10 11:19:02;;;;;;;6.03;2.20;;;;;;;16.98;28.14;100644.78;4236064;28;20247;-62
2023/05/10 11:21:30;;;;;;;4.77;1.80;;;;;;;16.99;28.03;100655.53;4238459;28;20325;-61
2023/05/10 11:23:59;;;;;;;7.27;2.00;;;;;;;16.84;28.15;100636.34;4232681;28;20233;-59
2023/05/10 11:26:30;;;;;;;8.30;2.53;;;;;;;17.04;28.60;100642.16;4218665;28;20242;-59
2023/05/10 11:28:58;;;;;;;4.77;2.00;;;;;;;17.18;27.93;100648.69;4222609;28;20473;-59
2023/05/10 11:31:26;;;;;;;7.23;2.00;;;;;;;16.88;27.39;100639.56;4199033;28;20839;-60
2023/05/10 11:33:55;;;;;;;9.03;2.50;;;;;;;16.91;27.72;100641.91;4210623;28;20352;-59